Time;durP1;ratioP1;P1;durP2;ratioP2;P2;SDS_P1;SDS_P2;PMS_P1;PMS_P2;Temp;Humidity;BMP_temperature;BMP_pressure;BME280_temperature;BME280_humidity;BME280_pressure;Samples;Min_cycle;Max_cycle;Signal;HPM_P1;HPM_P2
2022/09/03 00:00:01;;;;;;;4.43;1.90;;;20.90;1.00;;;;;;5039311;28;20531;-73
2022/09/03 00:02:44;;;;;;;2.50;1.80;;;20.90;1.00;;;;;;5042863;28;20454;-75
2022/09/03 00:05:12;;;;;;;3.90;2.10;;;20.90;1.00;;;;;;5048089;28;20442;-74
2022/09/03 00:08:02;;;;;;;3.07;2.07;;;20.90;1.00;;;;;;5046839;28;20454;-74
2022/09/03 00:10:54;;;;;;;5.77;2.03;;;20.90;1.00;;;;;;5043117;28;20427;-74
2022/09/03 00:13:27;;;;;;;3.70;2.00;;;20.80;1.00;;;;;;5036471;28;20522;-73
2022/09/03 00:15:55;;;;;;;3.10;1.90;;;20.80;1.00;;;;;;5046628;28;20467;-74
2022/09/03 00:18:27;;;;;;;2.80;1.73;;;20.80;1.00;;;;;;5043197;28;20457;-73
2022/09/03 00:21:14;;;;;;;3.40;2.23;;;20.80;1.00;;;;;;5037362;28;20518;-74
2022/09/03 00:23:41;;;;;;;4.30;2.10;;;20.80;1.00;;;;;;5033974;28;20800;-74
2022/09/03 00:26:13;;;;;;;3.70;2.03;;;20.80;1.00;;;;;;5047549;28;20455;-73
2022/09/03 00:28:44;;;;;;;4.17;1.90;;;20.70;1.00;;;;;;5043469;28;20805;-74
2022/09/03 00:31:25;;;;;;;4.00;2.10;;;20.70;1.00;;;;;;5045891;28;20424;-74
2022/09/03 00:33:55;;;;;;;3.00;2.00;;;20.70;1.00;;;;;;5040722;28;20440;-73
2022/09/03 00:36:32;;;;;;;6.90;2.23;;;20.70;1.00;;;;;;5043177;28;20478;-73
2022/09/03 00:38:58;;;;;;;4.23;2.00;;;20.70;1.00;;;;;;5049116;28;20423;-73
2022/09/03 00:41:40;;;;;;;3.87;2.03;;;20.70;1.00;;;;;;5042803;28;20469;-73
2022/09/03 00:44:29;;;;;;;3.00;1.97;;;20.70;1.00;;;;;;5046995;28;20173;-73
2022/09/03 00:47:14;;;;;;;8.53;2.43;;;20.70;1.00;;;;;;5042878;28;20466;-74
2022/09/03 00:49:45;;;;;;;6.90;2.40;;;20.70;1.00;;;;;;5048146;28;20495;-73
2022/09/03 00:52:31;;;;;;;3.13;1.87;;;20.60;1.00;;;;;;5039203;28;20428;-73
2022/09/03 00:54:57;;;;;;;3.20;1.90;;;20.60;1.00;;;;;;5041420;28;20533;-73
2022/09/03 00:57:38;;;;;;;7.07;2.00;;;20.60;1.00;;;;;;5045873;28;20534;-74
2022/09/03 01:00:13;;;;;;;7.67;2.10;;;20.60;1.00;;;;;;5037054;28;20169;-73
2022/09/03 01:03:06;;;;;;;2.77;1.93;;;20.60;1.00;;;;;;5041739;28;20506;-73
2022/09/03 01:05:40;;;;;;;2.83;1.97;;;20.60;1.00;;;;;;5050169;28;20419;-73
2022/09/03 01:08:25;;;;;;;4.50;2.03;;;20.60;1.00;;;;;;5040931;28;20438;-74
2022/09/03 01:10:56;;;;;;;5.53;2.30;;;20.50;1.00;;;;;;5041987;28;20525;-74
2022/09/03 01:13:38;;;;;;;4.27;2.10;;;20.50;1.00;;;;;;5039631;28;20899;-73
2022/09/03 01:16:31;;;;;;;2.50;1.73;;;20.50;1.00;;;;;;5042055;28;20524;-73
2022/09/03 01:19:12;;;;;;;5.03;2.20;;;20.50;1.00;;;;;;5048645;28;20438;-73
2022/09/03 01:22:18;;;;;;;4.00;2.10;;;20.50;1.00;;;;;;5042029;28;20897;-74
2022/09/03 01:25:10;;;;;;;4.53;2.00;;;20.50;1.00;;;;;;5046883;28;20829;-73
2022/09/03 01:28:08;;;;;;;4.13;1.97;;;20.50;1.00;;;;;;5044668;28;20474;-74
2022/09/03 01:30:38;;;;;;;2.90;2.00;;;20.50;1.00;;;;;;5049537;28;20426;-73
2022/09/03 01:33:30;;;;;;;4.20;2.00;;;20.40;1.00;;;;;;5033137;28;20565;-74
2022/09/03 01:36:10;;;;;;;2.67;1.93;;;20.50;1.00;;;;;;5042545;28;20961;-74
2022/09/03 01:38:57;;;;;;;6.33;2.33;;;20.50;1.00;;;;;;5040471;28;20423;-73
2022/09/03 01:44:44;;;;;;;3.53;2.20;;;20.40;1.00;;;;;;5046601;28;20445;-74
2022/09/03 01:47:31;;;;;;;3.73;2.13;;;20.40;1.00;;;;;;5042581;28;20461;-74
2022/09/03 01:50:19;;;;;;;3.20;2.10;;;20.50;1.00;;;;;;5044240;28;20447;-73
2022/09/03 01:52:58;;;;;;;3.37;2.53;;;20.40;1.00;;;;;;5036916;28;20497;-74
2022/09/03 01:55:56;;;;;;;3.40;2.03;;;20.40;1.00;;;;;;5043596;28;21059;-73
2022/09/03 01:58:43;;;;;;;4.60;1.97;;;20.30;1.00;;;;;;5048662;28;20940;-74
2022/09/03 02:01:29;;;;;;;2.80;2.00;;;20.30;1.00;;;;;;5044016;28;20423;-73
2022/09/03 02:03:58;;;;;;;3.40;1.90;;;20.30;1.00;;;;;;5032292;28;20450;-73
2022/09/03 02:06:26;;;;;;;3.77;2.10;;;20.30;1.00;;;;;;5042744;28;20458;-73
2022/09/03 02:08:52;;;;;;;4.53;2.10;;;20.30;1.00;;;;;;5049106;28;20435;-73
2022/09/03 02:11:18;;;;;;;9.73;1.87;;;20.20;1.00;;;;;;5042216;28;20429;-73
2022/09/03 02:13:48;;;;;;;5.00;2.40;;;20.20;1.00;;;;;;5046405;28;20545;-73
2022/09/03 02:16:23;;;;;;;3.33;2.10;;;20.20;1.00;;;;;;5043839;28;20549;-74
2022/09/03 02:18:56;;;;;;;4.57;2.43;;;20.20;1.00;;;;;;5044964;28;20499;-73
2022/09/03 02:21:24;;;;;;;3.70;1.90;;;20.20;1.00;;;;;;5043933;28;20805;-73
2022/09/03 02:23:49;;;;;;;2.70;2.07;;;20.20;1.00;;;;;;5034464;28;20436;-74
2022/09/03 02:26:19;;;;;;;8.20;2.20;;;20.10;1.00;;;;;;5047204;28;20745;-74
2022/09/03 02:28:45;;;;;;;2.90;1.90;;;20.10;1.00;;;;;;5047107;28;20193;-73
2022/09/03 02:31:11;;;;;;;3.00;2.10;;;20.10;1.00;;;;;;5039237;28;20821;-73
2022/09/03 02:33:39;;;;;;;3.20;2.20;;;20.10;1.00;;;;;;5043968;28;20226;-73
2022/09/03 02:36:08;;;;;;;4.70;1.90;;;20.10;1.00;;;;;;5043087;28;20319;-74
2022/09/03 02:38:34;;;;;;;3.00;2.00;;;20.00;1.00;;;;;;5044559;28;20431;-73
2022/09/03 02:40:59;;;;;;;3.83;2.00;;;20.00;1.00;;;;;;5044934;28;20854;-73
2022/09/03 02:43:37;;;;;;;2.73;1.90;;;19.90;1.00;;;;;;5038094;28;20201;-73
2022/09/03 02:46:06;;;;;;;3.57;2.00;;;19.90;1.00;;;;;;5039958;28;20188;-73
2022/09/03 02:48:32;;;;;;;5.60;2.43;;;19.90;1.00;;;;;;5042387;28;20510;-73
2022/09/03 02:50:57;;;;;;;4.00;2.10;;;19.90;1.00;;;;;;5044960;28;20442;-74
2022/09/03 02:53:23;;;;;;;4.20;2.20;;;19.80;1.00;;;;;;5032382;28;20191;-74
2022/09/03 02:55:49;;;;;;;3.40;2.10;;;19.80;1.00;;;;;;5046067;28;20231;-74
2022/09/03 02:58:15;;;;;;;3.60;2.43;;;19.80;1.00;;;;;;5048668;28;20215;-74
2022/09/03 03:00:40;;;;;;;6.13;2.23;;;19.70;1.00;;;;;;5045088;28;20197;-74
2022/09/03 03:03:06;;;;;;;2.63;1.97;;;19.70;1.00;;;;;;5045271;28;20740;-74
2022/09/03 03:05:54;;;;;;;7.17;2.13;;;19.70;1.00;;;;;;5042920;28;20205;-74
2022/09/03 03:08:22;;;;;;;3.77;2.50;;;19.70;1.00;;;;;;5037723;28;20173;-74
2022/09/03 03:10:48;;;;;;;5.37;2.30;;;19.70;1.00;;;;;;5043062;28;20858;-74
2022/09/03 03:13:15;;;;;;;4.90;2.30;;;19.70;1.00;;;;;;5047210;28;20415;-74
2022/09/03 03:15:40;;;;;;;6.10;2.30;;;19.80;1.00;;;;;;5046039;28;20201;-74
2022/09/03 03:18:06;;;;;;;8.43;2.20;;;19.70;1.00;;;;;;5036925;28;20829;-74
2022/09/03 03:20:32;;;;;;;5.13;2.60;;;19.70;1.00;;;;;;5048575;28;20252;-74
2022/09/03 03:23:01;;;;;;;3.50;2.40;;;19.70;1.00;;;;;;5033373;28;20606;-74
2022/09/03 03:25:26;;;;;;;4.63;2.23;;;19.70;1.00;;;;;;5044026;28;20614;-74
2022/09/03 03:27:55;;;;;;;4.30;2.10;;;19.60;1.00;;;;;;5041264;28;20551;-74
2022/09/03 03:30:22;;;;;;;3.60;2.30;;;19.70;1.00;;;;;;5047592;28;20663;-74
2022/09/03 03:32:47;;;;;;;5.07;2.23;;;19.60;1.00;;;;;;5040027;28;20979;-74
2022/09/03 03:35:13;;;;;;;5.00;2.17;;;19.60;1.00;;;;;;5044318;28;20466;-74
2022/09/03 03:37:39;;;;;;;3.43;2.07;;;19.60;1.00;;;;;;5043438;28;20548;-74
2022/09/03 03:40:06;;;;;;;3.00;2.20;;;19.60;1.00;;;;;;5042971;28;20256;-74
2022/09/03 03:42:33;;;;;;;4.17;1.83;;;19.70;1.00;;;;;;5044752;28;20276;-74
2022/09/03 03:44:59;;;;;;;4.30;2.30;;;19.60;1.00;;;;;;5045273;28;20542;-74
2022/09/03 03:47:24;;;;;;;2.67;2.10;;;19.70;1.00;;;;;;5041832;28;20518;-75
2022/09/03 03:49:49;;;;;;;2.70;2.10;;;19.70;1.00;;;;;;5045867;28;20208;-75
2022/09/03 03:52:15;;;;;;;3.47;2.20;;;19.70;1.00;;;;;;5034232;28;20653;-74
2022/09/03 03:54:40;;;;;;;4.23;2.20;;;19.70;1.00;;;;;;5041747;28;20196;-74
2022/09/03 03:57:06;;;;;;;5.77;2.13;;;19.70;1.00;;;;;;5045980;28;20223;-74
2022/09/03 03:59:31;;;;;;;4.13;2.87;;;19.70;1.00;;;;;;5044366;28;20188;-74
2022/09/03 04:01:57;;;;;;;3.40;2.60;;;19.70;1.00;;;;;;5046663;28;20535;-74
2022/09/03 04:04:22;;;;;;;3.80;1.90;;;19.70;1.00;;;;;;5044854;28;20276;-74
2022/09/03 04:06:48;;;;;;;3.07;2.33;;;19.90;1.00;;;;;;5040790;28;20564;-74
2022/09/03 04:09:13;;;;;;;2.67;2.00;;;19.70;1.00;;;;;;5045125;28;20598;-74
2022/09/03 04:11:39;;;;;;;5.23;2.10;;;19.70;1.00;;;;;;5046568;28;20224;-74
2022/09/03 04:14:04;;;;;;;3.70;2.33;;;19.70;1.00;;;;;;5047221;28;20169;-74
2022/09/03 04:16:31;;;;;;;6.03;2.50;;;19.60;1.00;;;;;;5048415;28;20197;-74
2022/09/03 04:18:57;;;;;;;4.00;2.33;;;19.60;1.00;;;;;;5049665;28;20509;-74
2022/09/03 04:21:26;;;;;;;5.23;2.40;;;19.60;1.00;;;;;;5047825;28;20439;-75
2022/09/03 04:23:52;;;;;;;3.73;2.70;;;19.50;1.00;;;;;;5040759;28;20428;-74
2022/09/03 04:26:30;;;;;;;3.20;2.40;;;19.60;1.00;;;;;;5049065;28;20434;-74
2022/09/03 04:28:55;;;;;;;3.27;2.30;;;19.40;1.00;;;;;;5045141;28;20457;-74
2022/09/03 04:31:21;;;;;;;3.53;2.30;;;19.40;1.00;;;;;;5047416;28;20431;-74
2022/09/03 04:33:46;;;;;;;5.63;2.50;;;19.40;1.00;;;;;;5047745;28;20680;-74
2022/09/03 04:36:12;;;;;;;5.03;2.63;;;19.20;1.00;;;;;;5047815;28;20220;-74
2022/09/03 04:38:40;;;;;;;3.00;2.30;;;19.10;1.00;;;;;;5048392;28;20332;-74
2022/09/03 04:41:09;;;;;;;5.10;2.60;;;18.90;1.00;;;;;;5044409;28;20248;-74
2022/09/03 04:43:34;;;;;;;5.97;2.83;;;18.70;1.00;;;;;;5042396;28;20493;-74
2022/09/03 04:46:02;;;;;;;5.23;2.67;;;18.50;1.00;;;;;;5043589;28;20845;-74
2022/09/03 04:48:29;;;;;;;5.27;2.70;;;18.30;1.00;;;;;;5042362;28;20854;-74
2022/09/03 04:51:04;;;;;;;4.03;2.90;;;17.80;1.00;;;;;;5041595;28;20435;-74
2022/09/03 04:53:30;;;;;;;5.53;2.73;;;17.50;1.00;;;;;;5045322;28;20430;-72
2022/09/03 04:55:55;;;;;;;3.30;2.83;;;17.30;1.00;;;;;;5046553;28;20536;-74
2022/09/03 04:58:21;;;;;;;5.13;2.60;;;17.00;1.00;;;;;;5045638;28;20239;-74
2022/09/03 05:00:46;;;;;;;3.50;2.90;;;17.10;1.00;;;;;;5050458;28;20169;-72
2022/09/03 05:03:11;;;;;;;2.97;2.67;;;17.10;1.00;;;;;;5049551;28;20177;-72
2022/09/03 05:05:37;;;;;;;4.60;2.50;;;17.20;1.00;;;;;;5050398;28;20729;-73
2022/09/03 05:08:03;;;;;;;4.10;2.60;;;17.30;1.00;;;;;;5033716;28;20182;-72
2022/09/03 05:10:29;;;;;;;6.37;2.50;;;17.50;1.00;;;;;;5031299;28;20185;-73
2022/09/03 05:13:03;;;;;;;5.33;2.40;;;17.60;1.00;;;;;;5037129;28;20181;-72
2022/09/03 05:15:30;;;;;;;3.20;2.43;;;17.60;1.00;;;;;;5044252;28;21013;-73
2022/09/03 05:17:58;;;;;;;4.37;2.23;;;17.60;1.00;;;;;;5052407;28;20430;-72
2022/09/03 05:20:24;;;;;;;3.63;2.50;;;17.70;1.00;;;;;;5050389;28;20506;-73
2022/09/03 05:22:50;;;;;;;2.90;2.60;;;17.70;1.00;;;;;;5050862;28;20515;-73
2022/09/03 05:25:16;;;;;;;3.67;2.33;;;17.80;1.00;;;;;;5040834;28;20446;-72
2022/09/03 05:27:41;;;;;;;4.20;2.90;;;17.80;1.00;;;;;;5050614;28;20436;-73
2022/09/03 05:30:08;;;;;;;6.20;2.47;;;18.00;1.00;;;;;;5047518;28;20212;-73
2022/09/03 05:32:33;;;;;;;2.63;2.30;;;18.00;1.00;;;;;;5038140;28;20196;-73
2022/09/03 05:34:59;;;;;;;4.20;2.40;;;18.10;1.00;;;;;;5042755;28;20533;-72
2022/09/03 05:37:24;;;;;;;2.80;2.40;;;18.20;1.00;;;;;;5046511;28;20209;-73
2022/09/03 05:39:50;;;;;;;2.97;2.67;;;18.10;1.00;;;;;;5043301;28;20218;-73
2022/09/03 05:42:16;;;;;;;2.87;2.37;;;18.20;1.00;;;;;;5038862;28;20207;-73
2022/09/03 05:44:42;;;;;;;2.80;2.50;;;18.30;1.00;;;;;;5044057;28;20455;-73
2022/09/03 05:47:08;;;;;;;3.00;2.23;;;18.20;1.00;;;;;;5049092;28;20563;-73
2022/09/03 05:49:33;;;;;;;3.37;2.90;;;18.30;1.00;;;;;;5041541;28;20431;-73
2022/09/03 05:51:59;;;;;;;2.80;2.40;;;18.40;1.00;;;;;;5040592;28;20243;-73
2022/09/03 05:54:25;;;;;;;3.20;2.53;;;18.50;1.00;;;;;;5040662;28;20282;-73
2022/09/03 05:56:50;;;;;;;10.10;3.03;;;18.60;1.00;;;;;;5043341;28;20626;-73
2022/09/03 05:59:16;;;;;;;4.43;2.70;;;18.60;1.00;;;;;;5048355;28;20424;-73
2022/09/03 06:01:45;;;;;;;3.10;2.80;;;18.80;1.00;;;;;;5043993;28;20177;-73
2022/09/03 06:04:12;;;;;;;3.53;3.00;;;18.90;1.00;;;;;;5045378;28;20186;-72
2022/09/03 06:06:40;;;;;;;4.33;3.07;;;18.90;1.00;;;;;;5039070;28;20432;-73
2022/09/03 06:09:09;;;;;;;5.33;2.93;;;19.00;1.00;;;;;;5041447;28;20427;-73
2022/09/03 06:11:36;;;;;;;3.80;2.63;;;19.00;1.00;;;;;;5037963;28;20522;-72
2022/09/03 06:14:04;;;;;;;6.23;2.80;;;19.00;1.00;;;;;;5048834;28;20416;-73
2022/09/03 06:16:31;;;;;;;4.20;2.87;;;19.00;1.00;;;;;;5044488;28;20508;-73
2022/09/03 06:18:57;;;;;;;4.70;3.03;;;19.10;1.00;;;;;;5040507;28;20515;-73
2022/09/03 06:21:23;;;;;;;4.70;3.20;;;19.10;1.00;;;;;;5037450;28;20474;-73
2022/09/03 06:23:56;;;;;;;5.00;3.13;;;19.10;1.00;;;;;;5039755;28;20485;-73
2022/09/03 06:26:23;;;;;;;4.67;3.80;;;18.90;1.00;;;;;;5037327;28;20174;-73
2022/09/03 06:28:48;;;;;;;6.87;3.50;;;18.70;1.00;;;;;;5045569;28;20946;-73
2022/09/03 06:31:17;;;;;;;13.73;4.10;;;18.50;1.00;;;;;;5045689;28;20474;-73
2022/09/03 06:33:44;;;;;;;15.17;3.90;;;18.10;1.00;;;;;;5045656;28;20177;-74
2022/09/03 06:36:12;;;;;;;4.53;3.23;;;17.80;1.00;;;;;;5044947;28;20555;-73
2022/09/03 06:38:38;;;;;;;5.43;3.60;;;17.80;1.00;;;;;;5044176;28;20420;-73
2022/09/03 06:41:07;;;;;;;6.53;4.17;;;17.00;1.00;;;;;;5041063;28;20430;-73
2022/09/03 06:43:36;;;;;;;6.03;3.67;;;16.80;1.00;;;;;;5045595;28;20438;-73
2022/09/03 06:46:10;;;;;;;3.87;3.53;;;16.80;1.00;;;;;;5036758;28;20451;-73
2022/09/03 06:48:37;;;;;;;6.07;3.43;;;16.70;1.00;;;;;;5044989;28;20419;-73
2022/09/03 06:51:06;;;;;;;5.50;3.37;;;16.60;1.00;;;;;;5042088;28;20507;-73
2022/09/03 06:53:34;;;;;;;6.00;3.57;;;16.50;1.00;;;;;;5036933;28;21026;-73
2022/09/03 06:56:02;;;;;;;6.60;4.07;;;16.40;1.00;;;;;;5042757;28;20498;-73
2022/09/03 06:58:29;;;;;;;4.80;3.93;;;16.30;1.00;;;;;;5045738;28;20469;-73
2022/09/03 07:01:17;;;;;;;7.93;4.30;;;16.30;1.00;;;;;;5042685;28;20514;-73
2022/09/03 07:03:44;;;;;;;5.13;3.57;;;16.30;1.00;;;;;;5034810;28;20165;-73
2022/09/03 07:06:15;;;;;;;6.87;4.17;;;16.30;1.00;;;;;;5043098;28;20794;-73
2022/09/03 07:08:41;;;;;;;5.60;3.57;;;16.30;1.00;;;;;;5045215;28;20523;-73
2022/09/03 07:11:10;;;;;;;12.10;4.30;;;16.30;1.00;;;;;;5038407;28;20946;-73
2022/09/03 07:13:39;;;;;;;16.37;4.10;;;16.30;4.00;;;;;;5046287;28;20461;-73
2022/09/03 07:16:10;;;;;;;5.47;4.37;;;16.30;2.30;;;;;;5041789;28;20570;-73
2022/09/03 07:18:36;;;;;;;5.07;4.10;;;16.30;4.10;;;;;;5046705;28;20420;-73
2022/09/03 07:21:05;;;;;;;4.30;3.60;;;16.20;3.60;;;;;;5040206;28;20416;-73
2022/09/03 07:23:31;;;;;;;8.77;4.67;;;16.30;4.70;;;;;;5041914;28;20423;-73
2022/09/03 07:25:59;;;;;;;4.10;3.70;;;16.40;7.20;;;;;;5048974;28;20427;-73
2022/09/03 07:28:26;;;;;;;4.80;3.90;;;16.40;2.40;;;;;;5040022;28;20447;-73
2022/09/03 07:30:53;;;;;;;8.63;4.40;;;16.40;2.80;;;;;;5043884;28;20506;-74
2022/09/03 07:33:18;;;;;;;6.47;4.27;;;16.50;9.70;;;;;;5038451;28;20506;-74
2022/09/03 07:35:45;;;;;;;5.33;4.00;;;16.70;13.20;;;;;;5042555;28;20574;-73
2022/09/03 07:38:10;;;;;;;5.83;3.93;;;16.90;5.20;;;;;;5046427;28;20173;-72
2022/09/03 07:40:38;;;;;;;7.60;4.57;;;17.10;5.70;;;;;;5041029;28;20437;-73
2022/09/03 07:43:04;;;;;;;5.60;4.53;;;17.20;10.80;;;;;;5040250;28;20230;-73
2022/09/03 07:45:32;;;;;;;6.37;4.40;;;17.20;17.30;;;;;;5054037;28;20442;-73
2022/09/03 07:47:57;;;;;;;4.97;4.20;;;17.30;9.00;;;;;;5050406;28;20499;-73
2022/09/03 07:50:23;;;;;;;8.30;5.23;;;17.20;15.10;;;;;;5041432;28;20470;-73
2022/09/03 07:52:48;;;;;;;9.73;5.27;;;17.10;9.20;;;;;;5033813;28;20193;-73
2022/09/03 07:55:14;;;;;;;8.43;4.70;;;17.00;14.30;;;;;;5052381;28;20724;-75
2022/09/03 07:57:40;;;;;;;12.93;4.30;;;16.90;20.30;;;;;;5039938;28;20530;-72
2022/09/03 08:00:11;;;;;;;8.27;4.40;;;16.90;17.60;;;;;;5042514;28;20178;-72
2022/09/03 08:02:37;;;;;;;9.33;5.30;;;16.70;18.20;;;;;;5043598;28;20174;-73
2022/09/03 08:05:02;;;;;;;8.77;5.03;;;16.60;25.40;;;;;;5039227;28;20495;-73
2022/09/03 08:07:29;;;;;;;11.23;4.80;;;16.50;25.60;;;;;;5038004;28;20195;-73
2022/09/03 08:09:55;;;;;;;11.47;5.27;;;16.40;26.20;;;;;;5046703;28;20177;-75
2022/09/03 08:12:20;;;;;;;5.10;4.17;;;16.50;30.30;;;;;;5032331;28;20562;-75
2022/09/03 08:14:46;;;;;;;5.60;4.30;;;16.40;18.90;;;;;;5045412;28;20213;-75
2022/09/03 08:17:12;;;;;;;6.67;4.60;;;16.40;27.10;;;;;;5038568;28;20671;-74
2022/09/03 08:19:39;;;;;;;7.77;4.20;;;16.40;29.30;;;;;;5040863;28;20481;-74
2022/09/03 08:22:05;;;;;;;9.13;4.87;;;16.40;25.40;;;;;;5040184;28;20174;-75
2022/09/03 08:24:33;;;;;;;6.87;4.87;;;16.30;27.90;;;;;;5047551;28;20429;-74
2022/09/03 08:26:59;;;;;;;6.47;4.80;;;16.30;28.70;;;;;;5048255;28;20231;-75
2022/09/03 08:29:26;;;;;;;6.43;3.90;;;16.20;29.90;;;;;;5046725;28;20412;-75
2022/09/03 08:31:51;;;;;;;6.43;5.00;;;16.10;29.20;;;;;;5048902;28;20458;-73
2022/09/03 08:34:17;;;;;;;6.60;4.70;;;16.10;43.00;;;;;;5044503;28;20907;-73
2022/09/03 08:36:43;;;;;;;9.90;4.50;;;16.20;43.20;;;;;;5057912;28;20197;-71
2022/09/03 08:39:09;;;;;;;7.20;4.20;;;16.20;43.10;;;;;;5045712;28;20165;-71
2022/09/03 08:41:59;;;;;;;5.13;4.40;;;16.10;43.20;;;;;;5046227;28;20165;-73
2022/09/03 08:44:33;;;;;;;8.50;4.77;;;16.00;43.00;;;;;;5054808;28;20456;-71
2022/09/03 08:47:05;;;;;;;7.00;4.70;;;16.00;43.00;;;;;;5048062;28;20420;-70
2022/09/03 08:49:48;;;;;;;6.87;4.60;;;16.00;43.00;;;;;;5051648;28;20426;-72
2022/09/03 08:52:38;;;;;;;6.47;4.37;;;15.90;42.90;;;;;;5034835;28;20954;-71
2022/09/03 08:55:19;;;;;;;6.97;4.77;;;15.90;43.00;;;;;;5037596;28;20475;-71
2022/09/03 08:58:13;;;;;;;8.03;4.10;;;15.80;42.80;;;;;;5047344;28;20435;-73
2022/09/03 09:01:00;;;;;;;6.00;4.03;;;15.20;42.30;;;;;;5038474;28;21130;-72
2022/09/03 09:03:41;;;;;;;5.80;4.90;;;15.90;43.00;;;;;;5050857;28;20911;-71
2022/09/03 09:06:19;;;;;;;5.23;4.70;;;15.90;42.90;;;;;;5046907;28;20443;-73
2022/09/03 09:08:47;;;;;;;8.93;5.60;;;16.00;43.10;;;;;;5045593;28;20422;-72
2022/09/03 09:11:36;;;;;;;6.53;4.57;;;16.00;43.00;;;;;;5039937;28;20718;-72
2022/09/03 09:14:23;;;;;;;6.20;5.00;;;16.10;43.20;;;;;;5037052;28;20436;-73
2022/09/03 09:16:58;;;;;;;12.33;4.40;;;16.20;43.20;;;;;;5049800;28;20527;-72
2022/09/03 09:19:34;;;;;;;6.70;4.63;;;16.40;43.30;;;;;;5044114;28;20455;-73
2022/09/03 09:22:10;;;;;;;6.73;4.77;;;16.70;43.60;;;;;;5039937;28;20963;-73
2022/09/03 09:24:43;;;;;;;6.93;5.40;;;17.10;44.10;;;;;;5046452;28;20461;-73
2022/09/03 09:27:11;;;;;;;6.07;5.13;;;17.50;44.40;;;;;;5046661;28;20996;-73
2022/09/03 09:29:38;;;;;;;5.17;4.53;;;17.90;44.50;;;;;;5046880;28;20533;-73
2022/09/03 09:32:08;;;;;;;8.70;5.10;;;18.10;23.50;;;;;;5045093;28;20926;-72
2022/09/03 09:34:35;;;;;;;7.70;5.90;;;18.20;20.40;;;;;;5035656;28;20598;-72
2022/09/03 09:37:04;;;;;;;6.07;5.10;;;18.20;24.70;;;;;;5040614;28;20452;-72
2022/09/03 09:39:30;;;;;;;6.13;5.43;;;18.20;17.80;;;;;;5045774;28;20498;-73
2022/09/03 09:42:04;;;;;;;7.13;5.00;;;18.20;13.90;;;;;;5038732;28;20578;-74
2022/09/03 09:44:30;;;;;;;8.87;4.90;;;18.10;11.00;;;;;;5044385;28;20199;-74
2022/09/03 09:47:19;;;;;;;6.43;5.17;;;18.20;23.70;;;;;;5059119;28;20408;-74
2022/09/03 09:49:45;;;;;;;5.80;5.20;;;18.20;13.20;;;;;;5046750;28;20548;-73
2022/09/03 09:52:14;;;;;;;6.53;5.13;;;18.10;9.40;;;;;;5042982;28;20434;-73
2022/09/03 09:54:41;;;;;;;6.03;5.43;;;18.30;25.90;;;;;;5043524;28;20795;-73
2022/09/03 09:57:17;;;;;;;9.70;5.90;;;18.60;25.70;;;;;;5040599;28;20551;-74
2022/09/03 09:59:45;;;;;;;7.27;5.47;;;19.00;18.50;;;;;;5049796;28;20905;-74
2022/09/03 10:02:19;;;;;;;6.50;5.80;;;19.70;19.00;;;;;;5037620;28;20434;-74
2022/09/03 10:04:44;;;;;;;6.97;5.97;;;20.00;5.30;;;;;;5043859;28;20439;-73
2022/09/03 10:07:30;;;;;;;7.33;6.20;;;20.40;1.00;;;;;;5049376;28;20403;-74
2022/09/03 10:10:16;;;;;;;6.30;5.70;;;20.40;1.00;;;;;;5042485;28;20295;-74
2022/09/03 10:12:47;;;;;;;7.80;5.90;;;20.10;1.00;;;;;;5049571;28;20894;-77
2022/09/03 10:15:54;;;;;;;8.83;6.13;;;19.80;1.00;;;;;;5044653;28;20530;-73
2022/09/03 10:18:44;;;;;;;7.13;6.30;;;19.80;1.00;;;;;;5028512;28;20438;-74
2022/09/03 10:21:25;;;;;;;6.70;6.00;;;20.20;1.00;;;;;;5042323;28;20756;-74
2022/09/03 10:24:14;;;;;;;15.70;6.00;;;21.30;1.00;;;;;;5041816;28;20431;-74
2022/09/03 10:26:43;;;;;;;6.43;5.20;;;21.90;1.00;;;;;;5043589;28;20872;-76
2022/09/03 10:29:09;;;;;;;7.50;5.43;;;22.30;1.00;;;;;;5040894;28;20462;-74
2022/09/03 10:32:21;;;;;;;8.17;5.90;;;22.60;1.00;;;;;;5046260;28;20959;-77
2022/09/03 10:35:29;;;;;;;6.80;5.33;;;23.50;1.00;;;;;;5048749;28;20663;-74
2022/09/03 10:38:09;;;;;;;6.80;4.60;;;25.40;1.00;;;;;;5040000;28;20432;-74
2022/09/03 10:40:43;;;;;;;8.70;5.07;;;27.10;1.00;;;;;;5048105;28;20568;-74
2022/09/03 10:43:40;;;;;;;5.70;4.53;;;27.80;1.00;;;;;;5047291;28;20433;-76
2022/09/03 10:46:14;;;;;;;5.80;4.27;;;28.80;1.00;;;;;;5054555;28;20569;-74
2022/09/03 10:48:42;;;;;;;6.27;5.20;;;29.60;1.00;;;;;;5039691;28;20627;-74
2022/09/03 10:51:33;;;;;;;7.00;4.50;;;28.90;1.00;;;;;;5047787;28;20184;-75
2022/09/03 10:54:34;;;;;;;7.23;4.57;;;27.80;1.00;;;;;;5040142;28;20176;-75
2022/09/03 10:57:13;;;;;;;5.13;4.40;;;27.20;1.00;;;;;;5032268;28;20193;-77
2022/09/03 11:00:24;;;;;;;6.27;4.80;;;27.90;1.00;;;;;;5049401;28;20176;-75
2022/09/03 11:03:06;;;;;;;6.57;3.93;;;29.30;1.00;;;;;;5044134;28;20406;-76
2022/09/03 11:05:38;;;;;;;6.45;3.97;;;31.40;1.00;;;;;;5046840;28;20200;-76
2022/09/03 11:08:15;;;;;;;18.42;3.72;;;33.30;1.00;;;;;;5045617;28;20179;-76
2022/09/03 11:10:45;;;;;;;4.30;2.92;;;34.00;1.00;;;;;;5049914;28;20170;-76
2022/09/03 11:13:25;;;;;;;4.75;3.25;;;32.50;1.00;;;;;;5044242;28;20184;-76
2022/09/03 11:16:00;;;;;;;4.93;3.10;;;31.60;1.00;;;;;;5053138;28;20219;-76
2022/09/03 11:18:34;;;;;;;4.47;3.00;;;31.80;1.00;;;;;;5050474;28;20638;-76
2022/09/03 11:21:04;;;;;;;4.10;2.80;;;31.60;1.00;;;;;;5037467;28;20492;-76
2022/09/03 11:23:35;;;;;;;3.47;2.90;;;32.10;1.00;;;;;;5043452;28;20242;-77
2022/09/03 11:26:06;;;;;;;3.55;2.95;;;33.60;1.00;;;;;;5049113;28;20245;-76
2022/09/03 11:28:54;;;;;;;6.13;3.20;;;34.70;1.00;;;;;;5050218;28;20211;-77
2022/09/03 11:31:46;;;;;;;3.45;3.03;;;36.00;1.00;;;;;;5049409;28;20173;-77
2022/09/03 11:34:25;;;;;;;4.20;3.20;;;35.50;1.00;;;;;;5044266;28;20172;-77
2022/09/03 11:36:51;;;;;;;4.28;3.28;;;34.10;1.00;;;;;;5051926;28;20940;-76
2022/09/03 11:39:18;;;;;;;3.97;3.17;;;32.60;1.00;;;;;;5047212;28;20264;-75
2022/09/03 11:41:56;;;;;;;3.78;3.20;;;32.90;1.00;;;;;;5050158;28;20177;-76
2022/09/03 11:44:22;;;;;;;3.63;3.10;;;35.00;1.00;;;;;;5048538;28;20230;-76
2022/09/03 11:46:58;;;;;;;4.00;2.97;;;36.30;1.00;;;;;;5049401;28;20223;-75
2022/09/03 11:49:30;;;;;;;4.00;2.95;;;35.50;1.00;;;;;;5052240;28;20263;-76
2022/09/03 11:52:05;;;;;;;4.72;3.38;;;33.70;1.00;;;;;;5040574;28;20176;-76
2022/09/03 11:54:42;;;;;;;4.32;2.97;;;33.10;1.00;;;;;;5044049;28;20501;-76
2022/09/03 11:57:14;;;;;;;3.53;2.80;;;33.30;1.00;;;;;;5045913;28;20192;-76
2022/09/03 11:59:42;;;;;;;3.83;3.08;;;33.20;1.00;;;;;;5044707;28;20177;-76
2022/09/03 12:02:32;;;;;;;4.55;3.25;;;32.80;1.00;;;;;;5051897;28;20603;-75
2022/09/03 12:04:57;;;;;;;3.03;2.53;;;32.80;1.00;;;;;;5040243;28;20196;-76
2022/09/03 12:07:49;;;;;;;4.10;2.95;;;32.80;1.00;;;;;;5048601;28;20192;-75
2022/09/03 12:10:35;;;;;;;4.97;2.90;;;33.30;1.00;;;;;;5052446;28;20177;-76
2022/09/03 12:13:18;;;;;;;4.78;4.03;;;35.10;1.00;;;;;;5047481;28;20616;-75
2022/09/03 12:16:22;;;;;;;8.07;2.50;;;36.70;1.00;;;;;;5045292;28;20216;-77
2022/09/03 12:18:51;;;;;;;3.50;2.35;;;37.30;1.00;;;;;;5041718;28;20678;-75
2022/09/03 12:21:18;;;;;;;3.13;2.58;;;36.60;1.00;;;;;;5051818;28;20520;-76
2022/09/03 12:23:53;;;;;;;4.97;2.83;;;36.60;1.00;;;;;;5044791;28;20208;-75
2022/09/03 12:26:24;;;;;;;3.28;2.45;;;37.40;1.00;;;;;;5050783;28;20284;-76
2022/09/03 12:28:55;;;;;;;4.85;2.75;;;37.80;1.00;;;;;;5048847;28;20562;-75
2022/09/03 12:31:29;;;;;;;3.70;2.63;;;36.30;1.00;;;;;;5051948;28;20161;-75
2022/09/03 12:33:58;;;;;;;3.65;2.97;;;34.30;1.00;;;;;;5044898;28;20294;-75
2022/09/03 12:36:25;;;;;;;3.83;2.88;;;33.10;1.00;;;;;;5051980;28;20203;-76
2022/09/03 12:38:51;;;;;;;4.13;3.17;;;32.20;1.00;;;;;;5045544;28;20179;-76
2022/09/03 12:41:29;;;;;;;4.70;3.03;;;31.70;1.00;;;;;;5050157;28;20203;-75
2022/09/03 12:43:57;;;;;;;4.20;2.78;;;32.80;1.00;;;;;;5049054;28;20181;-76
2022/09/03 12:46:25;;;;;;;3.10;2.40;;;34.00;1.00;;;;;;5058032;28;20176;-76
2022/09/03 12:49:02;;;;;;;4.55;2.55;;;35.10;1.00;;;;;;5041398;28;20261;-76
2022/09/03 12:51:35;;;;;;;4.80;2.28;;;36.70;1.00;;;;;;5049307;28;20254;-78
2022/09/03 12:54:04;;;;;;;3.40;2.60;;;38.50;1.00;;;;;;5050202;28;20188;-76
2022/09/03 12:56:32;;;;;;;3.88;2.95;;;39.30;1.00;;;;;;5047018;28;20284;-75
2022/09/03 12:59:04;;;;;;;3.20;2.67;;;39.80;1.00;;;;;;5042376;28;20177;-76
2022/09/03 13:01:36;;;;;;;3.58;2.70;;;40.80;1.00;;;;;;5049089;28;20194;-75
2022/09/03 13:04:13;;;;;;;3.25;2.67;;;41.30;1.00;;;;;;5042612;28;20267;-76
2022/09/03 13:06:52;;;;;;;4.18;2.95;;;40.60;1.00;;;;;;5049445;28;20179;-76
2022/09/03 13:09:23;;;;;;;3.10;2.72;;;37.70;1.00;;;;;;5045216;28;20540;-77
2022/09/03 13:11:51;;;;;;;5.10;3.03;;;35.40;1.00;;;;;;5048946;28;20168;-76
2022/09/03 13:14:17;;;;;;;3.88;3.17;;;35.30;1.00;;;;;;5049181;28;20709;-76
2022/09/03 13:16:43;;;;;;;3.95;3.47;;;33.90;1.00;;;;;;5057990;28;20620;-77
2022/09/03 13:19:25;;;;;;;5.13;3.03;;;32.90;1.00;;;;;;5045073;28;20393;-76
2022/09/03 13:22:06;;;;;;;6.47;3.40;;;32.10;1.00;;;;;;5043101;28;20583;-76
2022/09/03 13:24:56;;;;;;;4.85;3.53;;;31.20;1.00;;;;;;5045324;28;20250;-76